Time;durP1;ratioP1;P1;durP2;ratioP2;P2;SDS_P1;SDS_P2;PMS_P1;PMS_P2;Temp;Humidity;BMP_temperature;BMP_pressure;BME280_temperature;BME280_humidity;BME280_pressure;Samples;Min_cycle;Max_cycle;Signal;HPM_P1;HPM_P2
2023/10/23 00:01:22;;;;;;;4.88;1.75;;;10.00;99.90;;;;;;5071545;28;20197;-74
2023/10/23 00:03:50;;;;;;;5.28;1.73;;;10.00;99.90;;;;;;5080473;28;20366;-74
2023/10/23 00:06:18;;;;;;;5.13;1.38;;;10.00;99.90;;;;;;5078525;28;20224;-74
2023/10/23 00:08:46;;;;;;;5.90;1.40;;;9.90;99.90;;;;;;5067053;28;20208;-74
2023/10/23 00:11:22;;;;;;;4.13;1.60;;;9.80;99.90;;;;;;5072204;28;20205;-74
2023/10/23 00:13:50;;;;;;;4.10;1.27;;;9.80;99.90;;;;;;5077744;28;20768;-74
2023/10/23 00:16:19;;;;;;;4.93;1.33;;;9.70;99.90;;;;;;5066958;28;20276;-73
2023/10/23 00:18:48;;;;;;;4.22;1.50;;;9.70;99.90;;;;;;5078596;28;20299;-74
2023/10/23 00:21:17;;;;;;;7.05;1.20;;;9.70;99.90;;;;;;5075049;28;20208;-74
2023/10/23 00:23:44;;;;;;;4.25;1.08;;;9.70;99.90;;;;;;5071470;28;20225;-74
2023/10/23 00:26:12;;;;;;;5.70;1.58;;;9.70;99.90;;;;;;5072206;28;20316;-74
2023/10/23 00:28:40;;;;;;;7.30;1.42;;;9.70;99.90;;;;;;5071830;28;20211;-74
2023/10/23 00:31:08;;;;;;;8.20;1.50;;;9.70;99.90;;;;;;5072116;28;20229;-74
2023/10/23 00:33:36;;;;;;;2.70;1.45;;;9.60;99.90;;;;;;5078245;28;20217;-74
2023/10/23 00:36:06;;;;;;;3.33;1.20;;;9.60;99.90;;;;;;5069743;28;20615;-74
2023/10/23 00:38:33;;;;;;;5.35;1.40;;;9.60;99.90;;;;;;5058668;28;20718;-74
2023/10/23 00:41:01;;;;;;;6.97;1.40;;;9.60;99.90;;;;;;5071173;28;20288;-74
2023/10/23 00:43:29;;;;;;;4.28;1.40;;;9.60;99.90;;;;;;5073787;28;20777;-74
2023/10/23 00:45:57;;;;;;;9.93;1.92;;;9.50;99.90;;;;;;5080315;28;20300;-74
2023/10/23 00:48:26;;;;;;;2.22;1.15;;;9.50;99.90;;;;;;5071696;28;20274;-74
2023/10/23 00:50:56;;;;;;;3.60;1.38;;;9.50;99.90;;;;;;5071944;28;20194;-74
2023/10/23 00:53:26;;;;;;;4.88;1.20;;;9.40;99.90;;;;;;5071275;28;20650;-74
2023/10/23 00:55:54;;;;;;;7.03;1.48;;;9.40;99.90;;;;;;5080297;28;20280;-74
2023/10/23 00:58:23;;;;;;;4.28;1.40;;;9.40;99.90;;;;;;5071973;28;20205;-74
2023/10/23 01:00:50;;;;;;;2.58;1.25;;;9.40;99.90;;;;;;5069549;28;20209;-74
2023/10/23 01:03:18;;;;;;;9.25;1.83;;;9.40;99.90;;;;;;5070185;28;20232;-74
2023/10/23 01:05:46;;;;;;;4.40;1.20;;;9.30;99.90;;;;;;5067214;28;20229;-74
2023/10/23 01:08:14;;;;;;;4.25;1.08;;;9.30;99.90;;;;;;5070973;28;20201;-74
2023/10/23 01:10:43;;;;;;;4.40;1.25;;;9.30;99.90;;;;;;5070856;28;20201;-74
2023/10/23 01:13:11;;;;;;;6.47;1.52;;;9.20;99.90;;;;;;5075896;28;20614;-74
2023/10/23 01:15:39;;;;;;;6.03;1.17;;;9.20;99.90;;;;;;5074372;28;20280;-74
2023/10/23 01:18:07;;;;;;;3.78;1.67;;;9.20;99.90;;;;;;5066983;28;20685;-74
2023/10/23 01:20:35;;;;;;;6.43;1.48;;;9.20;99.90;;;;;;5071198;28;20197;-74
2023/10/23 01:23:03;;;;;;;6.82;1.58;;;9.10;99.90;;;;;;5079667;28;20221;-74
2023/10/23 01:25:33;;;;;;;5.45;1.23;;;9.10;99.90;;;;;;5078626;28;20220;-74
2023/10/23 01:28:01;;;;;;;2.70;0.98;;;9.10;99.90;;;;;;5071017;28;20754;-74
2023/10/23 01:30:29;;;;;;;6.40;1.45;;;9.00;99.90;;;;;;5071488;28;20284;-74
2023/10/23 01:32:57;;;;;;;3.65;1.38;;;9.10;99.90;;;;;;5071107;28;20323;-73
2023/10/23 01:35:25;;;;;;;2.78;1.02;;;9.00;99.90;;;;;;5068746;28;20563;-74
2023/10/23 01:37:53;;;;;;;7.05;1.35;;;9.00;99.90;;;;;;5071093;28;20237;-74
2023/10/23 01:40:21;;;;;;;2.65;1.02;;;9.00;99.90;;;;;;5070698;28;20225;-74
2023/10/23 01:42:50;;;;;;;3.20;1.10;;;9.00;99.90;;;;;;5070325;28;20279;-74
2023/10/23 01:45:19;;;;;;;5.35;1.15;;;8.90;99.90;;;;;;5070938;28;20225;-74
2023/10/23 01:47:47;;;;;;;6.70;1.38;;;8.90;99.90;;;;;;5071013;28;20248;-74
2023/10/23 01:50:15;;;;;;;5.00;0.98;;;8.90;99.90;;;;;;5070816;28;20202;-74
2023/10/23 01:52:44;;;;;;;10.45;1.63;;;8.90;99.90;;;;;;5070822;28;20775;-74
2023/10/23 01:55:12;;;;;;;3.85;1.10;;;8.90;99.90;;;;;;5062707;28;20201;-74
2023/10/23 01:57:40;;;;;;;4.40;0.82;;;8.80;99.90;;;;;;5079577;28;20205;-74
2023/10/23 02:00:11;;;;;;;1.88;1.23;;;8.80;99.90;;;;;;5071008;28;20201;-74
2023/10/23 02:02:39;;;;;;;6.57;1.42;;;8.70;99.90;;;;;;5071177;28;20225;-73
2023/10/23 02:05:07;;;;;;;4.25;1.13;;;8.70;99.90;;;;;;5078874;28;20232;-73
2023/10/23 02:07:35;;;;;;;6.05;1.20;;;8.70;99.90;;;;;;5070812;28;20640;-74
2023/10/23 02:10:03;;;;;;;9.75;1.52;;;8.60;99.90;;;;;;5059843;28;20233;-74
2023/10/23 02:12:32;;;;;;;2.30;0.98;;;8.60;99.90;;;;;;5079141;28;20238;-73
2023/10/23 02:15:00;;;;;;;8.63;1.45;;;8.60;99.90;;;;;;5074053;28;20245;-74
2023/10/23 02:17:29;;;;;;;6.95;1.10;;;8.60;99.90;;;;;;5074509;28;20255;-74
2023/10/23 02:19:58;;;;;;;3.88;1.33;;;8.60;99.90;;;;;;5069923;28;20690;-74
2023/10/23 02:22:25;;;;;;;5.03;1.17;;;8.50;99.90;;;;;;5065946;28;20217;-74
2023/10/23 02:24:53;;;;;;;3.78;1.20;;;8.50;99.90;;;;;;5074097;28;20210;-74
2023/10/23 02:27:21;;;;;;;7.35;1.10;;;8.40;99.90;;;;;;5076905;28;20225;-74
2023/10/23 02:29:49;;;;;;;3.33;1.25;;;8.40;99.90;;;;;;5073533;28;20245;-74
2023/10/23 02:32:17;;;;;;;6.65;1.20;;;8.40;99.90;;;;;;5072508;28;20253;-73
2023/10/23 02:34:48;;;;;;;2.28;0.95;;;8.40;99.90;;;;;;5073470;28;20693;-74
2023/10/23 02:37:16;;;;;;;3.05;1.25;;;8.40;99.90;;;;;;5074244;28;20208;-74
2023/10/23 02:39:44;;;;;;;3.90;0.80;;;8.30;99.90;;;;;;5074019;28;20225;-74
2023/10/23 02:42:12;;;;;;;13.98;1.30;;;8.30;99.90;;;;;;5073934;28;20229;-74
2023/10/23 02:44:40;;;;;;;6.25;1.27;;;8.30;99.90;;;;;;5072173;28;20780;-74
2023/10/23 02:47:07;;;;;;;1.05;0.90;;;8.30;99.90;;;;;;5069722;28;20292;-74
2023/10/23 02:49:35;;;;;;;3.67;1.33;;;8.30;99.90;;;;;;5069528;28;20205;-74
2023/10/23 02:52:05;;;;;;;3.10;1.23;;;8.30;99.90;;;;;;5073596;28;20225;-74
2023/10/23 02:54:33;;;;;;;4.07;1.05;;;8.30;99.90;;;;;;5073321;28;20245;-74
2023/10/23 02:57:01;;;;;;;2.08;1.10;;;8.30;99.90;;;;;;5073717;28;20235;-73
2023/10/23 02:59:31;;;;;;;4.95;1.00;;;8.20;99.90;;;;;;5075988;28;20292;-73
2023/10/23 03:01:59;;;;;;;5.25;0.95;;;8.20;99.90;;;;;;5080195;28;20232;-74
2023/10/23 03:04:26;;;;;;;3.33;0.90;;;8.10;99.90;;;;;;5075961;28;20654;-73
2023/10/23 03:06:54;;;;;;;2.05;1.00;;;8.10;99.90;;;;;;5073510;28;20256;-74
2023/10/23 03:09:24;;;;;;;6.60;1.25;;;8.10;99.90;;;;;;5073367;28;20205;-74
2023/10/23 03:11:52;;;;;;;5.07;1.17;;;8.10;99.90;;;;;;5073608;28;20221;-74
2023/10/23 03:14:20;;;;;;;2.75;1.48;;;8.00;99.90;;;;;;5069188;28;20201;-74
2023/10/23 03:16:48;;;;;;;6.50;1.40;;;8.00;99.90;;;;;;5073315;28;20288;-73
2023/10/23 03:19:16;;;;;;;3.60;1.58;;;8.00;99.90;;;;;;5077768;28;20724;-74
2023/10/23 03:21:44;;;;;;;5.70;2.35;;;8.00;99.90;;;;;;5076455;28;20274;-73
2023/10/23 03:24:12;;;;;;;8.82;2.90;;;8.00;99.90;;;;;;5072922;28;20285;-74
2023/10/23 03:26:41;;;;;;;8.98;2.70;;;8.00;99.90;;;;;;5073032;28;20217;-73
2023/10/23 03:29:09;;;;;;;8.52;2.85;;;8.00;99.90;;;;;;5064692;28;20745;-74
2023/10/23 03:31:37;;;;;;;13.63;3.30;;;8.00;99.90;;;;;;5067823;28;20223;-73
2023/10/23 03:34:05;;;;;;;9.23;3.30;;;8.00;99.90;;;;;;5068977;22;20257;-59
2023/10/23 03:36:33;;;;;;;11.02;3.28;;;8.00;99.90;;;;;;5052761;28;20206;-59
2023/10/23 03:39:01;;;;;;;10.18;3.55;;;8.00;99.90;;;;;;5052677;28;20248;-59
2023/10/23 03:41:29;;;;;;;9.25;3.95;;;8.00;99.90;;;;;;5052809;28;20233;-59
2023/10/23 03:44:01;;;;;;;10.30;3.78;;;8.00;99.90;;;;;;5052528;28;20236;-59
2023/10/23 03:46:29;;;;;;;7.80;3.05;;;8.00;99.90;;;;;;5052833;28;20317;-59
2023/10/23 03:48:57;;;;;;;6.90;2.70;;;8.00;99.90;;;;;;5052520;28;20206;-59
2023/10/23 03:51:25;;;;;;;11.40;3.83;;;8.10;99.90;;;;;;5052731;28;20206;-58
2023/10/23 03:53:52;;;;;;;9.77;3.35;;;8.10;99.90;;;;;;5052029;28;20230;-58
2023/10/23 03:56:20;;;;;;;11.63;4.10;;;8.10;99.90;;;;;;5052564;28;20255;-58
2023/10/23 03:58:48;;;;;;;11.60;4.90;;;8.10;99.90;;;;;;5052427;28;20644;-60
2023/10/23 04:01:18;;;;;;;17.35;6.80;;;8.10;99.90;;;;;;5052393;28;20241;-60
2023/10/23 04:03:46;;;;;;;17.23;7.47;;;8.10;99.90;;;;;;5051922;28;20604;-59
2023/10/23 04:06:13;;;;;;;20.35;6.80;;;8.10;99.90;;;;;;5052196;28;20198;-60
2023/10/23 04:08:41;;;;;;;17.15;7.63;;;8.20;99.90;;;;;;5052376;28;20224;-60
2023/10/23 04:11:09;;;;;;;19.20;7.28;;;8.10;99.90;;;;;;5052419;28;20210;-60
2023/10/23 04:13:37;;;;;;;17.33;7.82;;;8.10;99.90;;;;;;5051981;28;20222;-60
2023/10/23 04:16:05;;;;;;;23.38;6.80;;;8.20;99.90;;;;;;5052143;28;20779;-60
2023/10/23 04:18:34;;;;;;;15.52;5.78;;;8.10;99.90;;;;;;5052007;28;20194;-60
2023/10/23 04:21:04;;;;;;;13.27;6.18;;;8.00;99.90;;;;;;5051955;28;20637;-60
2023/10/23 04:23:32;;;;;;;10.38;5.50;;;7.90;99.90;;;;;;5051746;28;20237;-60
2023/10/23 04:26:01;;;;;;;8.00;4.68;;;7.90;99.90;;;;;;5052115;28;20205;-60
2023/10/23 04:28:29;;;;;;;6.88;4.80;;;7.90;99.90;;;;;;5051818;28;20229;-60
2023/10/23 04:30:57;;;;;;;9.95;5.03;;;7.90;99.90;;;;;;5051940;28;20621;-60
2023/10/23 04:33:25;;;;;;;8.30;4.20;;;7.90;99.90;;;;;;5050780;28;20324;-60
2023/10/23 04:35:56;;;;;;;5.93;3.97;;;7.90;99.90;;;;;;5051689;28;20220;-60
2023/10/23 04:38:24;;;;;;;9.52;4.28;;;7.90;99.90;;;;;;5051789;28;20289;-59
2023/10/23 04:40:53;;;;;;;11.85;4.32;;;7.90;99.90;;;;;;5051696;28;20296;-61
2023/10/23 04:43:21;;;;;;;4.80;3.63;;;7.90;99.90;;;;;;5051408;28;20222;-60
2023/10/23 04:45:49;;;;;;;6.78;3.33;;;7.90;99.90;;;;;;5051521;28;20267;-59
2023/10/23 04:48:17;;;;;;;3.78;3.08;;;7.80;99.90;;;;;;5050831;28;20729;-60
2023/10/23 04:50:45;;;;;;;3.20;2.67;;;7.80;99.90;;;;;;5051826;28;20292;-60
2023/10/23 04:53:14;;;;;;;3.00;2.70;;;7.80;99.90;;;;;;5051297;28;20767;-59
2023/10/23 04:55:42;;;;;;;6.05;3.20;;;7.70;99.90;;;;;;5051372;28;20214;-60
2023/10/23 04:58:10;;;;;;;3.50;3.30;;;7.90;99.90;;;;;;5051124;28;20202;-60
2023/10/23 05:00:39;;;;;;;4.63;3.17;;;7.90;99.90;;;;;;5051372;28;20202;-60
2023/10/23 05:03:08;;;;;;;11.55;4.10;;;8.00;99.90;;;;;;5051472;28;20226;-60
2023/10/23 05:05:36;;;;;;;4.20;3.72;;;8.00;99.90;;;;;;5051223;28;20206;-60
2023/10/23 05:08:05;;;;;;;5.32;3.70;;;8.00;99.90;;;;;;5051467;28;20661;-60
2023/10/23 05:10:34;;;;;;;4.07;3.47;;;8.00;99.90;;;;;;5051243;28;20202;-61
2023/10/23 05:13:03;;;;;;;5.50;3.60;;;8.00;99.90;;;;;;5051132;28;20308;-60
2023/10/23 05:15:32;;;;;;;6.90;3.55;;;8.00;99.90;;;;;;5051187;28;20202;-60
2023/10/23 05:18:00;;;;;;;5.20;4.13;;;8.00;99.90;;;;;;5050671;28;20206;-60
2023/10/23 05:20:28;;;;;;;3.90;3.60;;;8.00;99.90;;;;;;5050408;28;20284;-60
2023/10/23 05:22:56;;;;;;;4.47;4.07;;;8.10;99.90;;;;;;5041941;28;20261;-60
2023/10/23 05:25:24;;;;;;;5.57;5.07;;;8.10;99.90;;;;;;5043724;28;20202;-59
2023/10/23 05:27:53;;;;;;;12.15;5.30;;;8.10;99.90;;;;;;5051252;28;20257;-60
2023/10/23 05:30:21;;;;;;;6.13;4.95;;;8.20;99.90;;;;;;5050487;28;20617;-60
2023/10/23 05:32:49;;;;;;;5.05;4.65;;;8.20;99.90;;;;;;5051172;28;20309;-58
2023/10/23 05:35:17;;;;;;;7.88;5.25;;;8.20;99.90;;;;;;5050820;28;20300;-59
2023/10/23 05:37:45;;;;;;;9.43;5.22;;;8.20;99.90;;;;;;5051217;28;20648;-58
2023/10/23 05:40:13;;;;;;;11.75;5.40;;;8.30;99.90;;;;;;5050677;28;20210;-59
2023/10/23 05:42:41;;;;;;;6.20;4.22;;;8.30;99.90;;;;;;5051169;28;20256;-58
2023/10/23 05:45:11;;;;;;;10.65;4.97;;;8.30;99.90;;;;;;5053338;28;20205;-58
2023/10/23 05:47:39;;;;;;;7.80;5.10;;;8.30;99.90;;;;;;5055089;28;20261;-61
2023/10/23 05:50:07;;;;;;;14.65;6.88;;;8.30;99.90;;;;;;5054659;28;20206;-61
2023/10/23 05:52:35;;;;;;;18.30;6.50;;;8.40;99.90;;;;;;5054835;28;20233;-61
2023/10/23 05:55:04;;;;;;;15.43;7.78;;;8.40;99.90;;;;;;5054497;28;20738;-59
2023/10/23 05:57:32;;;;;;;12.82;6.35;;;8.40;99.90;;;;;;5054809;28;20766;-60
2023/10/23 06:00:00;;;;;;;15.40;6.10;;;8.50;99.90;;;;;;5054460;28;20240;-60
2023/10/23 06:02:30;;;;;;;10.55;6.45;;;8.50;99.90;;;;;;5054842;28;20291;-60
2023/10/23 06:04:58;;;;;;;13.48;7.28;;;8.50;99.90;;;;;;5054158;28;20965;-59
2023/10/23 06:07:26;;;;;;;9.27;5.93;;;8.50;99.90;;;;;;5054901;28;20232;-59
2023/10/23 06:09:56;;;;;;;12.00;7.40;;;8.60;99.90;;;;;;5054462;28;20216;-59
2023/10/23 06:12:24;;;;;;;12.57;7.45;;;8.60;99.90;;;;;;5054547;28;20674;-59
2023/10/23 06:14:52;;;;;;;12.45;7.10;;;8.70;99.90;;;;;;5054310;28;20312;-60
2023/10/23 06:17:20;;;;;;;11.07;6.78;;;8.70;99.90;;;;;;5054850;28;20259;-60
2023/10/23 06:19:49;;;;;;;18.17;6.70;;;8.80;99.90;;;;;;5054600;28;20259;-59
2023/10/23 06:22:17;;;;;;;14.23;6.78;;;8.80;99.90;;;;;;5054262;28;20687;-59
2023/10/23 06:24:45;;;;;;;13.95;7.03;;;8.80;99.90;;;;;;5053771;28;20658;-59
2023/10/23 06:27:13;;;;;;;11.20;6.50;;;8.80;99.90;;;;;;5054208;28;20210;-59
2023/10/23 06:29:41;;;;;;;12.13;5.40;;;8.80;99.90;;;;;;5053941;28;20339;-59
2023/10/23 06:32:10;;;;;;;11.15;6.32;;;8.80;99.90;;;;;;5053593;28;20229;-59
2023/10/23 06:34:38;;;;;;;20.42;6.78;;;8.80;99.90;;;;;;5054016;28;20221;-59
2023/10/23 06:37:07;;;;;;;15.50;6.75;;;8.80;99.90;;;;;;5054168;28;20237;-58
2023/10/23 06:39:35;;;;;;;11.45;6.90;;;8.90;99.90;;;;;;5053980;28;20194;-59
2023/10/23 06:42:04;;;;;;;13.93;7.32;;;8.90;99.90;;;;;;5053836;28;20267;-59
2023/10/23 06:44:32;;;;;;;12.43;7.43;;;8.90;99.90;;;;;;5053284;28;20698;-59
2023/10/23 06:47:00;;;;;;;86.38;10.20;;;8.90;99.90;;;;;;5053978;28;20237;-59
2023/10/23 06:49:27;;;;;;;22.42;8.68;;;8.90;99.90;;;;;;5053613;28;20316;-59
2023/10/23 06:51:55;;;;;;;24.23;9.10;;;8.80;99.90;;;;;;5053685;28;20300;-59
2023/10/23 06:54:26;;;;;;;17.52;9.50;;;8.90;99.90;;;;;;5053173;28;20342;-58
2023/10/23 06:56:54;;;;;;;24.15;9.45;;;8.90;99.90;;;;;;5053781;28;20206;-59
2023/10/23 06:59:22;;;;;;;18.27;9.35;;;8.90;99.90;;;;;;5053342;28;20669;-59
2023/10/23 07:01:50;;;;;;;27.23;10.52;;;9.00;99.90;;;;;;5053823;28;20209;-59
2023/10/23 07:04:18;;;;;;;23.67;10.95;;;9.00;99.90;;;;;;5053294;28;20225;-59
2023/10/23 07:06:46;;;;;;;25.05;11.00;;;9.00;99.90;;;;;;5053521;28;20209;-58
2023/10/23 07:09:14;;;;;;;24.10;10.85;;;9.00;99.90;;;;;;5053169;28;20316;-59
2023/10/23 07:11:43;;;;;;;28.00;11.23;;;9.10;99.90;;;;;;5052931;28;20206;-60
2023/10/23 07:14:11;;;;;;;25.60;11.85;;;9.20;99.90;;;;;;5052872;28;20236;-59
2023/10/23 07:16:39;;;;;;;27.40;12.40;;;9.20;99.90;;;;;;5052834;28;20766;-59
2023/10/23 07:19:08;;;;;;;26.77;11.65;;;9.20;99.90;;;;;;5053177;28;20202;-59
2023/10/23 07:21:35;;;;;;;24.73;10.90;;;9.30;99.90;;;;;;5053290;28;20293;-58
2023/10/23 07:24:04;;;;;;;22.98;10.38;;;9.30;99.90;;;;;;5052736;28;20234;-59
2023/10/23 07:26:31;;;;;;;17.58;10.05;;;9.30;99.90;;;;;;5053123;28;20206;-59
2023/10/23 07:29:01;;;;;;;18.23;9.55;;;9.30;99.90;;;;;;5051159;28;20579;-60
2023/10/23 07:31:28;;;;;;;20.70;8.38;;;9.40;99.90;;;;;;5049912;28;20202;-58
2023/10/23 07:33:57;;;;;;;14.52;8.70;;;9.40;99.90;;;;;;5052545;28;20238;-60
2023/10/23 07:36:25;;;;;;;15.48;6.90;;;9.50;99.90;;;;;;5052903;28;20217;-59
2023/10/23 07:38:53;;;;;;;10.27;6.97;;;9.50;99.90;;;;;;5052530;28;20645;-59
2023/10/23 07:41:21;;;;;;;11.00;6.45;;;9.60;99.90;;;;;;5052820;28;20842;-59
2023/10/23 07:43:49;;;;;;;13.73;5.82;;;9.70;99.90;;;;;;5052282;28;20257;-60
2023/10/23 07:46:18;;;;;;;15.60;6.05;;;9.70;99.90;;;;;;5052674;28;20260;-60
2023/10/23 07:48:46;;;;;;;8.35;5.93;;;9.80;99.90;;;;;;5052521;28;20226;-58
2023/10/23 07:51:14;;;;;;;13.98;5.85;;;9.90;99.90;;;;;;5052456;28;20260;-59
2023/10/23 07:53:42;;;;;;;9.73;5.20;;;10.00;99.90;;;;;;5052534;28;20222;-60
2023/10/23 07:56:12;;;;;;;13.13;5.80;;;10.10;99.90;;;;;;5052680;28;20210;-60
2023/10/23 07:58:40;;;;;;;12.68;5.55;;;10.10;99.90;;;;;;5052512;28;20201;-60
2023/10/23 08:01:09;;;;;;;8.02;5.07;;;10.20;99.90;;;;;;5053076;28;20252;-60
2023/10/23 08:03:38;;;;;;;12.95;4.82;;;10.20;99.90;;;;;;5053632;28;20605;-59
2023/10/23 08:06:08;;;;;;;11.18;4.97;;;10.20;99.90;;;;;;5051952;28;20206;-59
2023/10/23 08:08:37;;;;;;;12.35;5.05;;;10.20;99.90;;;;;;5051600;28;20691;-60
2023/10/23 08:11:06;;;;;;;9.85;5.40;;;10.20;99.90;;;;;;5052368;28;20224;-59
2023/10/23 08:13:34;;;;;;;11.98;6.32;;;10.30;99.90;;;;;;5051010;28;20264;-60
2023/10/23 08:16:03;;;;;;;16.15;5.18;;;10.30;99.90;;;;;;5051940;28;20701;-60
2023/10/23 08:18:31;;;;;;;10.82;4.82;;;10.40;99.90;;;;;;5051918;28;20210;-60
2023/10/23 08:21:10;;;;;;;9.63;5.63;;;10.40;99.90;;;;;;5052358;28;20237;-60
2023/10/23 08:23:38;;;;;;;12.25;5.15;;;10.50;99.90;;;;;;5050123;28;20229;-59
2023/10/23 08:26:06;;;;;;;12.50;5.43;;;10.60;99.90;;;;;;5043312;28;20635;-60
2023/10/23 08:28:34;;;;;;;11.38;5.43;;;10.60;99.90;;;;;;5051903;28;20252;-60
2023/10/23 08:31:22;;;;;;;12.70;5.65;;;10.70;99.90;;;;;;5051544;28;20212;-60
2023/10/23 08:34:05;;;;;;;17.38;5.25;;;10.80;99.90;;;;;;5051274;28;20237;-59
2023/10/23 08:36:35;;;;;;;12.77;5.38;;;10.80;99.90;;;;;;5050168;28;20213;-60
2023/10/23 08:39:03;;;;;;;13.60;5.22;;;10.90;99.90;;;;;;5047521;28;20218;-60
2023/10/23 08:41:31;;;;;;;15.65;4.90;;;10.90;99.90;;;;;;5048630;28;20213;-60
2023/10/23 08:43:59;;;;;;;11.82;5.13;;;11.00;99.90;;;;;;5050344;28;20276;-61
2023/10/23 08:46:31;;;;;;;11.48;4.47;;;11.00;99.90;;;;;;5051718;28;20205;-61
2023/10/23 08:49:00;;;;;;;14.43;5.38;;;11.00;99.90;;;;;;5051407;28;20971;-61
2023/10/23 08:51:28;;;;;;;11.77;5.13;;;11.00;99.90;;;;;;5051546;28;20248;-60
2023/10/23 08:54:02;;;;;;;19.77;4.45;;;11.10;99.90;;;;;;5051084;28;20717;-60
2023/10/23 08:56:40;;;;;;;13.27;4.45;;;11.20;99.90;;;;;;5051599;28;20201;-60
2023/10/23 08:59:09;;;;;;;12.55;4.43;;;11.30;99.90;;;;;;5051390;28;20293;-58
2023/10/23 09:01:37;;;;;;;16.70;4.30;;;11.40;99.90;;;;;;5051411;28;20209;-59
2023/10/23 09:04:06;;;;;;;9.02;4.57;;;11.50;99.90;;;;;;5050851;28;20230;-60
2023/10/23 09:06:35;;;;;;;9.23;3.55;;;11.70;99.90;;;;;;5051540;28;20574;-59
2023/10/23 09:09:06;;;;;;;12.90;4.47;;;11.70;99.90;;;;;;5051201;28;20293;-59
2023/10/23 09:11:43;;;;;;;8.40;3.78;;;11.70;99.90;;;;;;5051352;28;20256;-59
2023/10/23 09:14:11;;;;;;;6.50;3.70;;;11.80;99.90;;;;;;5050987;28;20252;-60
2023/10/23 09:16:39;;;;;;;7.57;3.85;;;11.90;99.90;;;;;;5050969;28;20255;-60
2023/10/23 09:19:07;;;;;;;12.85;3.55;;;11.90;99.90;;;;;;5055690;28;20212;-60
2023/10/23 09:21:35;;;;;;;7.97;3.70;;;12.00;99.90;;;;;;5057941;28;20292;-60
2023/10/23 09:24:06;;;;;;;10.27;3.72;;;12.00;99.90;;;;;;5057491;28;20778;-60
2023/10/23 09:26:34;;;;;;;8.60;2.55;;;12.00;99.90;;;;;;5057428;28;20201;-60
2023/10/23 09:29:02;;;;;;;5.85;2.40;;;12.10;99.90;;;;;;5057472;28;20325;-60
2023/10/23 09:31:30;;;;;;;6.18;2.47;;;12.10;99.90;;;;;;5049788;28;20206;-60
2023/10/23 09:33:58;;;;;;;6.10;2.80;;;12.20;99.90;;;;;;5056954;28;20233;-60
2023/10/23 09:36:27;;;;;;;6.68;2.92;;;12.20;99.90;;;;;;5055733;28;20259;-60
2023/10/23 09:38:58;;;;;;;14.48;2.83;;;12.20;99.90;;;;;;5052834;28;20209;-60
2023/10/23 09:41:29;;;;;;;11.55;2.67;;;12.20;99.90;;;;;;5055191;28;20198;-60
2023/10/23 09:43:57;;;;;;;11.35;3.05;;;12.20;99.90;;;;;;5057269;28;20320;-60
2023/10/23 09:46:25;;;;;;;7.55;2.80;;;12.20;99.90;;;;;;5057924;28;20206;-60
2023/10/23 09:48:55;;;;;;;8.57;2.90;;;12.30;99.90;;;;;;5057511;28;20293;-60
2023/10/23 09:51:30;;;;;;;6.90;2.33;;;12.30;99.90;;;;;;5057375;28;20569;-60
2023/10/23 09:53:59;;;;;;;7.85;2.90;;;12.30;99.90;;;;;;5057470;28;20695;-60
2023/10/23 09:56:31;;;;;;;9.38;3.05;;;12.40;99.90;;;;;;5057485;28;20210;-60
2023/10/23 09:59:00;;;;;;;9.13;2.63;;;12.50;99.90;;;;;;5057771;28;20288;-60
2023/10/23 10:01:31;;;;;;;9.77;2.60;;;12.50;99.90;;;;;;5057606;28;20202;-62
2023/10/23 10:04:00;;;;;;;8.60;2.78;;;12.50;99.90;;;;;;5057464;28;20666;-61
2023/10/23 10:06:28;;;;;;;6.20;2.40;;;12.60;99.90;;;;;;5057506;28;20198;-61
2023/10/23 10:08:56;;;;;;;7.07;2.97;;;12.60;99.90;;;;;;5057325;28;20212;-60
2023/10/23 10:11:25;;;;;;;6.28;2.47;;;12.60;99.90;;;;;;5057586;28;20264;-60
2023/10/23 10:13:54;;;;;;;11.45;2.67;;;12.70;99.90;;;;;;5057325;28;20261;-61
2023/10/23 10:16:22;;;;;;;6.72;2.55;;;12.70;99.90;;;;;;5057407;28;20300;-61
2023/10/23 10:18:50;;;;;;;9.73;2.55;;;12.80;99.90;;;;;;5057505;28;20206;-61
2023/10/23 10:21:19;;;;;;;9.25;2.72;;;12.80;99.90;;;;;;5057343;28;20651;-60
2023/10/23 10:23:47;;;;;;;8.75;2.60;;;12.90;99.90;;;;;;5057325;28;20276;-60
2023/10/23 10:26:15;;;;;;;5.70;2.63;;;12.90;99.90;;;;;;5057290;28;20667;-60
2023/10/23 10:28:43;;;;;;;11.27;2.72;;;13.00;99.90;;;;;;5057313;28;20470;-61
2023/10/23 10:31:12;;;;;;;7.38;2.30;;;13.00;99.90;;;;;;5053535;28;20695;-61
2023/10/23 10:33:47;;;;;;;7.13;2.72;;;13.00;99.90;;;;;;5053750;28;20229;-60
2023/10/23 10:36:35;;;;;;;7.53;2.63;;;13.10;99.90;;;;;;5054356;28;20588;-60
2023/10/23 10:39:14;;;;;;;6.47;2.33;;;13.20;99.90;;;;;;5053909;28;20297;-61
2023/10/23 10:41:42;;;;;;;6.60;2.55;;;13.20;99.90;;;;;;5054342;28;20285;-60
2023/10/23 10:44:10;;;;;;;4.32;2.00;;;13.20;99.90;;;;;;5053343;28;20229;-61
2023/10/23 10:46:41;;;;;;;7.32;2.33;;;13.30;99.90;;;;;;5054079;28;20305;-61
2023/10/23 10:49:10;;;;;;;7.35;2.17;;;13.30;99.90;;;;;;5053602;28;20670;-61
2023/10/23 10:51:38;;;;;;;8.52;2.28;;;13.40;99.90;;;;;;5053824;28;20222;-61
2023/10/23 10:54:07;;;;;;;7.22;2.85;;;13.50;99.90;;;;;;5053477;28;20230;-61
2023/10/23 10:56:36;;;;;;;5.63;2.70;;;13.60;99.90;;;;;;5053682;28;20209;-60
2023/10/23 10:59:04;;;;;;;6.82;2.60;;;13.70;99.90;;;;;;5053047;28;20214;-61
2023/10/23 11:01:32;;;;;;;8.68;2.17;;;13.70;99.90;;;;;;5053315;28;20228;-61
2023/10/23 11:04:02;;;;;;;7.75;2.67;;;13.70;99.90;;;;;;5053254;28;20308;-61
2023/10/23 11:06:31;;;;;;;8.25;2.67;;;13.70;99.90;;;;;;5050809;28;20639;-61
2023/10/23 11:08:58;;;;;;;8.38;2.28;;;13.70;99.90;;;;;;5053201;28;20726;-61
2023/10/23 11:11:27;;;;;;;7.25;2.53;;;13.80;99.90;;;;;;5053290;28;20226;-61
2023/10/23 11:13:55;;;;;;;8.38;2.67;;;13.80;99.90;;;;;;5053179;28;20269;-61
2023/10/23 11:16:23;;;;;;;7.60;2.63;;;13.90;99.90;;;;;;5053085;28;20206;-61
2023/10/23 11:18:52;;;;;;;6.28;2.20;;;14.10;99.90;;;;;;5053185;28;20676;-61
2023/10/23 11:21:23;;;;;;;7.85;2.28;;;14.20;99.90;;;;;;5053337;28;20220;-61
2023/10/23 11:23:54;;;;;;;8.50;2.28;;;14.20;99.90;;;;;;5052727;28;20233;-61
2023/10/23 11:26:22;;;;;;;7.75;2.60;;;14.20;99.90;;;;;;5053451;28;20307;-61
2023/10/23 11:28:50;;;;;;;6.25;2.33;;;14.20;99.90;;;;;;5053226;28;20206;-61
2023/10/23 11:31:18;;;;;;;5.40;2.22;;;14.20;99.90;;;;;;5052813;28;20226;-61
2023/10/23 11:33:51;;;;;;;8.75;2.33;;;14.20;99.90;;;;;;5049012;28;20229;-60
2023/10/23 11:36:20;;;;;;;4.38;2.20;;;14.20;99.90;;;;;;5052743;28;20285;-61
2023/10/23 11:38:50;;;;;;;5.70;2.20;;;14.30;99.90;;;;;;5053095;28;20213;-60
2023/10/23 11:41:17;;;;;;;5.50;2.22;;;14.30;99.90;;;;;;5051825;28;20237;-60
2023/10/23 11:43:45;;;;;;;5.97;1.85;;;14.30;99.90;;;;;;5051892;28;20738;-60
2023/10/23 11:46:13;;;;;;;4.60;1.80;;;14.40;99.90;;;;;;5052481;28;20260;-60
2023/10/23 11:48:41;;;;;;;9.02;1.80;;;14.40;99.90;;;;;;5051530;28;20234;-60
2023/10/23 11:51:09;;;;;;;4.15;1.80;;;14.40;99.90;;;;;;5051833;28;20333;-60
2023/10/23 11:53:37;;;;;;;7.28;1.88;;;14.50;99.90;;;;;;5052255;28;20234;-59
2023/10/23 11:56:07;;;;;;;5.20;1.80;;;14.50;99.90;;;;;;5052230;28;20206;-59
2023/10/23 11:58:34;;;;;;;9.93;1.90;;;14.50;99.90;;;;;;5052648;28;20206;-59
2023/10/23 12:01:04;;;;;;;6.15;1.85;;;14.50;99.90;;;;;;5052322;28;20218;-59
2023/10/23 12:03:32;;;;;;;8.52;1.85;;;14.50;99.90;;;;;;5052083;28;20711;-59
2023/10/23 12:06:00;;;;;;;6.43;1.67;;;14.60;99.90;;;;;;5052266;28;20244;-59
2023/10/23 12:08:28;;;;;;;6.05;1.98;;;14.70;99.90;;;;;;5052197;28;20663;-59
2023/10/23 12:10:55;;;;;;;5.60;1.60;;;14.80;99.90;;;;;;5052152;28;20264;-59
2023/10/23 12:13:24;;;;;;;8.63;1.67;;;14.80;99.90;;;;;;5052326;28;20222;-59
2023/10/23 12:15:53;;;;;;;5.07;1.80;;;14.80;99.90;;;;;;5051849;28;20214;-59
2023/10/23 12:18:23;;;;;;;4.60;1.80;;;14.90;99.90;;;;;;5052410;28;20210;-59
2023/10/23 12:20:51;;;;;;;4.88;1.63;;;14.80;99.90;;;;;;5052016;28;20216;-59
2023/10/23 12:23:18;;;;;;;3.90;1.48;;;14.80;99.90;;;;;;5052012;28;20312;-59
2023/10/23 12:25:46;;;;;;;9.45;1.80;;;14.80;99.90;;;;;;5051705;28;20297;-59
2023/10/23 12:28:14;;;;;;;3.33;1.30;;;14.80;99.90;;;;;;5052203;28;20640;-60
2023/10/23 12:30:43;;;;;;;8.10;1.52;;;14.80;99.90;;;;;;5051607;28;20202;-59
2023/10/23 12:33:13;;;;;;;3.95;1.50;;;14.80;99.90;;;;;;5051894;28;20233;-60
2023/10/23 12:35:51;;;;;;;5.65;1.48;;;14.70;99.90;;;;;;5051422;28;20201;-60
2023/10/23 12:38:19;;;;;;;5.35;1.63;;;14.70;99.90;;;;;;5051872;28;20233;-60
2023/10/23 12:40:48;;;;;;;6.57;1.23;;;14.70;99.90;;;;;;5051643;28;20236;-59
2023/10/23 12:43:16;;;;;;;5.45;1.65;;;14.60;99.90;;;;;;5051918;28;20261;-59
2023/10/23 12:45:46;;;;;;;6.10;1.50;;;14.60;99.90;;;;;;5051465;28;20285;-60
2023/10/23 12:48:14;;;;;;;7.47;1.45;;;14.50;99.90;;;;;;5051592;28;20611;-59
2023/10/23 12:50:42;;;;;;;5.03;1.40;;;14.50;99.90;;;;;;5051472;28;20206;-59
2023/10/23 12:53:10;;;;;;;8.43;1.88;;;14.50;99.90;;;;;;5050990;28;20716;-60
2023/10/23 12:55:40;;;;;;;9.43;1.52;;;14.50;99.90;;;;;;5051121;28;20762;-59